createdAt,value
2023-02-02T00:01:53.218Z,53.56
2023-02-02T00:04:25.010Z,53.52
2023-02-02T00:06:54.388Z,54.77
2023-02-02T00:09:23.642Z,54.17
2023-02-02T00:11:52.172Z,53.01
2023-02-02T00:14:20.968Z,53.65
2023-02-02T00:16:53.731Z,53.32
2023-02-02T00:19:26.310Z,51.70
2023-02-02T00:21:55.371Z,51.51
2023-02-02T00:24:24.295Z,52.38
2023-02-02T00:26:55.958Z,52.30
2023-02-02T00:29:27.357Z,52.88
2023-02-02T00:31:56.194Z,51.60
2023-02-02T00:34:25.223Z,51.90
2023-02-02T00:36:53.701Z,51.73
2023-02-02T00:39:26.286Z,52.47
2023-02-02T00:41:55.226Z,51.69
2023-02-02T00:44:42.508Z,52.41
2023-02-02T00:47:11.319Z,52.23
2023-02-02T00:49:39.738Z,51.10
2023-02-02T00:52:09.024Z,52.33
2023-02-02T00:54:37.734Z,52.28
2023-02-02T00:57:06.311Z,52.13
2023-02-02T00:59:34.704Z,51.22
2023-02-02T01:02:03.206Z,50.29
2023-02-02T01:04:31.703Z,49.96
2023-02-02T01:07:00.176Z,51.54
2023-02-02T01:09:28.660Z,51.21
2023-02-02T01:11:57.133Z,50.29
2023-02-02T01:14:25.677Z,51.86
2023-02-02T01:16:54.065Z,50.68
2023-02-02T01:19:22.816Z,51.00
2023-02-02T01:21:51.210Z,51.58
2023-02-02T01:24:19.790Z,51.65
2023-02-02T01:26:48.267Z,50.68
2023-02-02T01:29:17.110Z,50.45
2023-02-02T01:31:45.584Z,51.37
2023-02-02T01:34:13.987Z,51.83
2023-02-02T01:36:42.472Z,52.15
2023-02-02T01:39:10.875Z,52.13
2023-02-02T01:41:40.674Z,50.80
2023-02-02T01:44:46.728Z,51.32
2023-02-02T01:47:15.776Z,50.39
2023-02-02T01:49:44.603Z,51.17
2023-02-02T01:52:15.129Z,50.83
2023-02-02T01:54:48.458Z,51.52
2023-02-02T01:57:25.567Z,50.22
2023-02-02T01:59:57.103Z,52.23
2023-02-02T02:02:26.916Z,52.29
2023-02-02T02:04:55.450Z,50.49
2023-02-02T02:07:24.046Z,50.30
2023-02-02T02:09:52.486Z,51.14
2023-02-02T02:12:21.004Z,51.25
2023-02-02T02:15:10.390Z,51.20
2023-02-02T02:17:57.889Z,50.97
2023-02-02T02:20:59.497Z,49.58
2023-02-02T02:23:55.679Z,49.71
2023-02-02T02:26:48.095Z,50.48
2023-02-02T02:29:53.958Z,49.46
2023-02-02T02:32:37.562Z,50.58
2023-02-02T02:35:12.013Z,50.33
2023-02-02T02:37:49.576Z,51.06
2023-02-02T02:40:26.310Z,50.69
2023-02-02T02:43:12.755Z,51.04
2023-02-02T02:45:44.552Z,51.73
2023-02-02T02:48:13.106Z,51.25
2023-02-02T02:50:41.539Z,51.95
2023-02-02T02:53:15.594Z,51.70
2023-02-02T02:55:54.432Z,52.13
2023-02-02T02:58:44.815Z,52.18
2023-02-02T03:01:34.006Z,51.78
2023-02-02T03:04:21.299Z,51.82
2023-02-02T03:07:10.325Z,52.63
2023-02-02T03:09:42.976Z,51.12
2023-02-02T03:12:11.571Z,50.79
2023-02-02T03:14:39.942Z,51.82
2023-02-02T03:17:08.595Z,50.18
2023-02-02T03:19:37.036Z,51.13
2023-02-02T03:22:05.443Z,52.43
2023-02-02T03:24:33.889Z,51.79
2023-02-02T03:27:02.473Z,52.74
2023-02-02T03:29:31.099Z,51.44
2023-02-02T03:31:59.612Z,51.56
2023-02-02T03:34:28.000Z,51.78
2023-02-02T03:36:56.468Z,52.73
2023-02-02T03:39:24.884Z,51.11
2023-02-02T03:41:53.326Z,50.80
2023-02-02T03:44:21.708Z,49.19
2023-02-02T03:46:53.880Z,50.78
2023-02-02T03:49:22.331Z,51.94
2023-02-02T03:51:50.876Z,52.57
2023-02-02T03:54:19.310Z,52.28
2023-02-02T03:56:47.777Z,51.96
2023-02-02T03:59:16.213Z,53.86
2023-02-02T04:01:44.657Z,52.57
2023-02-02T04:04:13.162Z,50.84
2023-02-02T04:06:41.708Z,51.98
2023-02-02T04:09:10.207Z,52.19
2023-02-02T04:11:40.068Z,52.21
2023-02-02T04:14:10.036Z,51.31
2023-02-02T04:16:38.563Z,51.42
2023-02-02T04:19:07.196Z,52.02
2023-02-02T04:21:35.778Z,51.96
2023-02-02T04:24:04.921Z,52.51
2023-02-02T04:26:33.338Z,52.96
2023-02-02T04:29:01.782Z,52.48
2023-02-02T04:31:30.438Z,53.75
2023-02-02T04:33:59.639Z,52.74
2023-02-02T04:36:28.220Z,52.07
2023-02-02T04:38:56.628Z,51.20
2023-02-02T04:41:25.262Z,52.27
2023-02-02T04:43:53.747Z,52.19
2023-02-02T04:46:22.231Z,52.74
2023-02-02T04:48:50.712Z,52.17
2023-02-02T04:51:19.142Z,53.08
2023-02-02T04:53:47.564Z,52.44
2023-02-02T04:56:18.981Z,54.12
2023-02-02T04:58:47.469Z,53.53
2023-02-02T05:01:18.939Z,51.74
2023-02-02T05:03:48.816Z,52.48
2023-02-02T05:06:19.390Z,52.67
2023-02-02T05:08:49.030Z,52.25
2023-02-02T05:11:20.468Z,50.88
2023-02-02T05:13:54.232Z,52.38
2023-02-02T05:16:23.596Z,52.54
2023-02-02T05:18:54.120Z,53.68
2023-02-02T05:21:23.125Z,54.29
2023-02-02T05:23:51.619Z,54.84
2023-02-02T05:26:26.224Z,52.70
2023-02-02T05:28:55.008Z,54.40
2023-02-02T05:31:23.518Z,53.81
2023-02-02T05:33:52.087Z,53.82
2023-02-02T05:36:20.575Z,53.94
2023-02-02T05:38:49.016Z,53.29
2023-02-02T05:41:17.508Z,54.17
2023-02-02T05:43:45.910Z,52.96
2023-02-02T05:46:14.600Z,53.08
2023-02-02T05:48:43.419Z,53.44
2023-02-02T05:51:14.617Z,53.81
2023-02-02T05:53:45.070Z,51.99
2023-02-02T05:56:15.597Z,53.40
2023-02-02T05:58:44.718Z,53.82
2023-02-02T06:01:13.989Z,52.76
2023-02-02T06:03:42.863Z,54.15
2023-02-02T06:06:11.299Z,54.67
2023-02-02T06:08:39.934Z,53.27
2023-02-02T06:11:13.856Z,56.08
2023-02-02T06:13:44.813Z,54.35
2023-02-02T06:16:14.672Z,54.56
2023-02-02T06:18:43.327Z,54.42
2023-02-02T06:21:12.308Z,54.88
2023-02-02T06:23:45.850Z,54.06
2023-02-02T06:26:15.540Z,54.92
2023-02-02T06:28:49.362Z,53.73
2023-02-02T06:31:19.437Z,52.73
2023-02-02T06:33:52.776Z,55.44
2023-02-02T06:36:22.180Z,55.87
2023-02-02T06:38:52.140Z,56.44
2023-02-02T06:41:21.422Z,53.81
2023-02-02T06:43:50.207Z,53.63
2023-02-02T06:46:18.916Z,54.30
2023-02-02T06:48:47.453Z,53.49
2023-02-02T06:51:16.037Z,52.70
2023-02-02T06:53:49.207Z,52.52
2023-02-02T06:56:17.899Z,53.78
2023-02-02T06:58:46.484Z,54.31
2023-02-02T07:01:15.077Z,53.27
2023-02-02T07:03:43.685Z,53.68
2023-02-02T07:06:22.939Z,52.86
2023-02-02T07:08:59.289Z,55.29
2023-02-02T07:11:34.632Z,55.68
2023-02-02T07:14:05.110Z,55.38
2023-02-02T07:16:33.597Z,54.97
2023-02-02T07:19:02.044Z,54.84
2023-02-02T07:21:35.645Z,54.54
2023-02-02T07:24:05.884Z,55.02
2023-02-02T07:26:36.048Z,55.23
2023-02-02T07:29:05.385Z,54.58
2023-02-02T07:31:36.249Z,54.24
2023-02-02T07:34:06.334Z,54.95
2023-02-02T07:36:35.168Z,55.17
2023-02-02T07:39:04.787Z,56.33
2023-02-02T07:41:35.323Z,56.23
2023-02-02T07:44:05.387Z,56.22
2023-02-02T07:46:33.970Z,56.68
2023-02-02T07:49:03.335Z,56.81
2023-02-02T07:51:31.839Z,56.45
2023-02-02T07:54:00.274Z,56.45
2023-02-02T07:56:28.896Z,56.00
2023-02-02T07:58:57.936Z,56.06
2023-02-02T08:01:28.439Z,56.44
2023-02-02T08:04:00.381Z,56.18
2023-02-02T08:06:35.375Z,55.66
2023-02-02T08:09:07.656Z,57.00
2023-02-02T08:11:37.630Z,57.12
2023-02-02T08:14:06.585Z,57.53
2023-02-02T08:16:35.185Z,55.99
2023-02-02T08:19:03.869Z,56.09
2023-02-02T08:21:34.512Z,56.22
2023-02-02T08:24:05.081Z,55.21
2023-02-02T08:26:33.721Z,56.84
2023-02-02T08:29:05.497Z,56.04
2023-02-02T08:31:44.844Z,55.36
2023-02-02T08:34:14.079Z,54.84
2023-02-02T08:36:42.625Z,55.07
2023-02-02T08:39:13.176Z,54.91
2023-02-02T08:41:41.523Z,54.76
2023-02-02T08:44:15.317Z,54.87
2023-02-02T08:46:43.832Z,55.37
2023-02-02T08:49:12.933Z,54.99
2023-02-02T08:51:41.896Z,54.82
2023-02-02T08:54:10.335Z,55.78
2023-02-02T08:56:38.835Z,54.43
2023-02-02T08:59:07.716Z,53.79
2023-02-02T09:01:36.316Z,55.22
2023-02-02T09:04:07.545Z,55.46
2023-02-02T09:06:40.444Z,55.62
2023-02-02T09:09:14.066Z,54.92
2023-02-02T09:11:43.561Z,56.49
2023-02-02T09:14:13.085Z,55.09
2023-02-02T09:16:41.903Z,53.40
2023-02-02T09:19:11.930Z,53.96
2023-02-02T09:21:40.595Z,53.04
2023-02-02T09:24:10.805Z,55.29
2023-02-02T09:26:40.735Z,56.14
2023-02-02T09:29:13.056Z,54.63
2023-02-02T09:31:41.679Z,53.69
2023-02-02T09:34:12.699Z,53.13
2023-02-02T09:36:42.394Z,54.01
2023-02-02T09:39:12.919Z,53.42
2023-02-02T09:41:41.794Z,53.38
2023-02-02T09:44:29.269Z,52.63
2023-02-02T09:47:08.732Z,53.08
2023-02-02T09:50:08.820Z,53.48
2023-02-02T09:52:44.229Z,52.37
2023-02-02T09:55:30.436Z,51.49
2023-02-02T09:58:25.780Z,51.41
2023-02-02T10:01:03.087Z,51.27
2023-02-02T10:03:50.025Z,51.04
2023-02-02T10:06:26.946Z,50.96
2023-02-02T10:09:03.177Z,52.41
2023-02-02T10:11:37.431Z,52.16
2023-02-02T10:14:20.380Z,51.82
2023-02-02T10:16:51.857Z,52.02
2023-02-02T10:19:21.248Z,51.14
2023-02-02T10:22:16.001Z,52.40
2023-02-02T10:24:44.784Z,53.29
2023-02-02T10:27:27.240Z,53.07
2023-02-02T10:30:00.104Z,52.49
2023-02-02T10:32:35.246Z,51.53
2023-02-02T10:35:28.110Z,52.68
2023-02-02T10:38:17.412Z,52.34
2023-02-02T10:41:02.244Z,52.04
2023-02-02T10:43:57.395Z,52.05
2023-02-02T10:46:28.784Z,52.91
2023-02-02T10:49:33.474Z,51.83
2023-02-02T10:52:16.119Z,52.36
2023-02-02T10:54:56.584Z,52.67
2023-02-02T10:58:11.233Z,52.44
2023-02-02T11:00:50.640Z,51.83
2023-02-02T11:03:22.188Z,51.86
2023-02-02T11:06:09.252Z,52.50
2023-02-02T11:08:41.847Z,52.88
2023-02-02T11:11:19.760Z,52.18
2023-02-02T11:13:58.134Z,52.31
2023-02-02T11:16:41.325Z,52.12
2023-02-02T11:19:17.581Z,51.26
2023-02-02T11:21:48.685Z,52.19
2023-02-02T11:24:30.893Z,51.46
2023-02-02T11:27:01.856Z,50.56
2023-02-02T11:29:39.137Z,51.34
2023-02-02T11:32:37.878Z,51.09
2023-02-02T11:35:18.885Z,50.58
2023-02-02T11:38:08.013Z,50.61
2023-02-02T11:40:45.360Z,51.85
2023-02-02T11:43:29.073Z,52.26
2023-02-02T11:46:16.324Z,52.03
2023-02-02T11:48:56.196Z,52.21
2023-02-02T11:51:26.535Z,51.80
2023-02-02T11:54:05.330Z,51.36
2023-02-02T11:56:36.959Z,51.23
2023-02-02T11:59:05.735Z,52.40
2023-02-02T12:01:39.634Z,51.25
2023-02-02T12:04:17.512Z,53.22
2023-02-02T12:06:46.027Z,52.24
2023-02-02T12:09:21.467Z,51.73
2023-02-02T12:12:25.483Z,51.96
2023-02-02T12:15:00.524Z,51.32
2023-02-02T12:17:38.871Z,51.77
2023-02-02T12:20:42.206Z,51.24
2023-02-02T12:23:42.971Z,51.88
2023-02-02T12:26:27.521Z,50.49
2023-02-02T12:29:24.242Z,50.98
2023-02-02T12:32:21.037Z,51.25
2023-02-02T12:34:57.862Z,50.97
2023-02-02T12:37:31.981Z,51.29
2023-02-02T12:40:17.446Z,50.20
2023-02-02T12:43:01.673Z,50.50
2023-02-02T12:45:48.451Z,51.69
2023-02-02T12:48:19.834Z,50.14
2023-02-02T12:51:08.424Z,50.46
2023-02-02T12:54:35.202Z,50.19
2023-02-02T12:57:30.201Z,49.04
2023-02-02T13:00:24.096Z,51.01
2023-02-02T13:03:05.254Z,51.02
2023-02-02T13:05:48.899Z,51.75
2023-02-02T13:08:29.854Z,51.86
2023-02-02T13:11:06.625Z,52.63
2023-02-02T13:13:39.494Z,52.40
2023-02-02T13:16:13.088Z,52.68
2023-02-02T13:18:51.772Z,51.99
2023-02-02T13:21:23.109Z,52.80
2023-02-02T13:23:56.310Z,52.32
2023-02-02T13:26:29.254Z,53.41
2023-02-02T13:29:10.160Z,52.63
2023-02-02T13:32:00.089Z,53.16
2023-02-02T13:34:50.968Z,52.53
2023-02-02T13:37:42.350Z,53.58
2023-02-02T13:40:39.910Z,53.56
2023-02-02T13:43:11.465Z,54.64
2023-02-02T13:46:11.890Z,53.90
2023-02-02T13:48:47.350Z,53.28
2023-02-02T13:51:24.942Z,53.15
2023-02-02T13:54:14.638Z,53.55
2023-02-02T13:57:18.763Z,53.29
2023-02-02T14:00:18.674Z,54.64
2023-02-02T14:02:50.011Z,55.45
2023-02-02T14:05:38.082Z,52.59
2023-02-02T14:08:17.452Z,51.18
2023-02-02T14:10:52.082Z,52.30
2023-02-02T14:13:50.305Z,52.28
2023-02-02T14:16:23.891Z,50.69
2023-02-02T14:18:57.131Z,52.48
2023-02-02T14:21:31.549Z,52.63
2023-02-02T14:24:21.730Z,51.55
2023-02-02T14:27:01.641Z,52.43
2023-02-02T14:29:33.180Z,52.95
2023-02-02T14:32:29.620Z,53.56
2023-02-02T14:35:16.434Z,56.03
2023-02-02T14:38:08.078Z,57.05
2023-02-02T14:40:49.909Z,56.76
2023-02-02T14:43:45.270Z,56.88
2023-02-02T14:46:13.762Z,56.29
2023-02-02T14:48:59.190Z,56.02
2023-02-02T14:51:31.152Z,57.73
2023-02-02T14:54:02.692Z,58.40
2023-02-02T14:56:45.540Z,57.97
2023-02-02T14:59:24.984Z,57.35
2023-02-02T15:02:16.858Z,56.17
2023-02-02T15:04:47.833Z,59.00
2023-02-02T15:07:22.419Z,57.27
2023-02-02T15:09:56.211Z,58.39
2023-02-02T15:12:44.932Z,58.49
2023-02-02T15:15:25.515Z,60.03
2023-02-02T15:18:01.183Z,59.94
2023-02-02T15:20:34.548Z,58.73
2023-02-02T15:23:19.244Z,58.65
2023-02-02T15:25:56.224Z,59.49
2023-02-02T15:28:35.711Z,59.89
2023-02-02T15:31:13.728Z,60.80
2023-02-02T15:33:44.843Z,60.28
2023-02-02T15:36:25.177Z,58.69
2023-02-02T15:38:58.435Z,60.04
2023-02-02T15:41:37.075Z,58.13
2023-02-02T15:44:26.557Z,57.82
2023-02-02T15:46:57.785Z,57.26
2023-02-02T15:49:34.714Z,59.08
2023-02-02T15:52:23.376Z,60.09
2023-02-02T15:55:00.303Z,60.82
2023-02-02T15:57:37.044Z,59.84
2023-02-02T16:00:27.630Z,61.42
2023-02-02T16:03:06.700Z,59.62
2023-02-02T16:05:35.007Z,58.14
2023-02-02T16:08:13.204Z,56.37
2023-02-02T16:10:41.711Z,55.83
2023-02-02T16:13:23.808Z,56.81
2023-02-02T16:16:01.576Z,57.95
2023-02-02T16:18:30.521Z,56.60
2023-02-02T16:21:02.050Z,57.92
2023-02-02T16:23:35.055Z,59.62
2023-02-02T16:26:06.502Z,58.08
2023-02-02T16:28:35.356Z,56.81
2023-02-02T16:31:04.054Z,57.12
2023-02-02T16:33:42.674Z,56.93
2023-02-02T16:36:26.190Z,57.43
2023-02-02T16:38:57.614Z,59.60
2023-02-02T16:41:32.997Z,56.92
2023-02-02T16:44:35.570Z,57.19
2023-02-02T16:47:07.171Z,57.75
2023-02-02T16:49:36.492Z,55.84
2023-02-02T16:52:10.065Z,58.82
2023-02-02T16:54:43.265Z,57.21
2023-02-02T16:57:25.949Z,58.14
2023-02-02T17:00:00.449Z,58.71
2023-02-02T17:02:36.598Z,59.77
2023-02-02T17:05:19.495Z,57.31
2023-02-02T17:07:51.275Z,56.57
2023-02-02T17:10:30.848Z,56.31
2023-02-02T17:13:00.903Z,56.36
2023-02-02T17:15:35.687Z,55.92
2023-02-02T17:18:05.442Z,54.85
2023-02-02T17:20:34.511Z,53.40
2023-02-02T17:23:09.795Z,52.93
2023-02-02T17:25:42.911Z,53.18
2023-02-02T17:28:14.439Z,52.71
2023-02-02T17:30:48.477Z,52.25
2023-02-02T17:33:19.112Z,52.13
2023-02-02T17:35:55.607Z,51.86
2023-02-02T17:38:25.868Z,52.50
2023-02-02T17:40:57.724Z,52.78
2023-02-02T17:43:27.736Z,52.50
2023-02-02T17:45:56.219Z,52.75
2023-02-02T17:48:24.888Z,53.98
2023-02-02T17:50:53.462Z,53.93
2023-02-02T17:53:22.314Z,54.14
2023-02-02T17:55:51.931Z,53.00
2023-02-02T17:58:20.404Z,53.05
2023-02-02T18:00:53.755Z,52.86
2023-02-02T18:03:33.913Z,51.69
2023-02-02T18:06:03.760Z,51.85
2023-02-02T18:08:33.203Z,52.09
2023-02-02T18:11:01.852Z,51.54
2023-02-02T18:13:30.352Z,51.53
2023-02-02T18:15:59.609Z,51.42
2023-02-02T18:18:29.696Z,51.82
2023-02-02T18:20:58.869Z,52.25
2023-02-02T18:23:27.607Z,51.57
2023-02-02T18:25:56.131Z,51.41
2023-02-02T18:28:25.487Z,51.47
2023-02-02T18:30:55.646Z,51.17
2023-02-02T18:33:24.144Z,50.82
2023-02-02T18:35:52.584Z,50.71
2023-02-02T18:38:21.373Z,50.78
2023-02-02T18:40:56.975Z,50.65
2023-02-02T18:43:25.410Z,50.90
2023-02-02T18:46:02.420Z,51.74
2023-02-02T18:48:31.746Z,51.78
2023-02-02T18:51:07.771Z,51.50
2023-02-02T18:53:36.323Z,51.21
2023-02-02T18:56:09.547Z,51.23
2023-02-02T18:58:38.557Z,51.22
2023-02-02T19:01:12.234Z,50.97
2023-02-02T19:03:41.078Z,52.06
2023-02-02T19:06:28.792Z,52.09
2023-02-02T19:08:57.151Z,51.73
2023-02-02T19:11:31.418Z,51.72
2023-02-02T19:13:59.889Z,52.25
2023-02-02T19:16:32.833Z,52.74
2023-02-02T19:19:11.397Z,52.01
2023-02-02T19:21:42.056Z,52.42
2023-02-02T19:24:14.161Z,52.65
2023-02-02T19:26:47.262Z,51.83
2023-02-02T19:29:22.140Z,51.59
2023-02-02T19:32:00.710Z,51.07
2023-02-02T19:34:29.799Z,52.13
2023-02-02T19:36:58.343Z,52.01
2023-02-02T19:39:33.209Z,51.33
2023-02-02T19:42:01.729Z,51.52
2023-02-02T19:44:33.910Z,52.20
2023-02-02T19:47:03.057Z,51.47
2023-02-02T19:49:34.065Z,51.72
2023-02-02T19:52:03.958Z,51.72
2023-02-02T19:54:40.913Z,51.37
2023-02-02T19:57:36.735Z,51.37
2023-02-02T20:00:31.621Z,51.70
2023-02-02T20:03:39.407Z,51.73
2023-02-02T20:06:16.030Z,51.49
2023-02-02T20:08:44.575Z,51.50
2023-02-02T20:11:35.317Z,51.98
2023-02-02T20:14:28.429Z,52.20
2023-02-02T20:17:14.032Z,51.85
2023-02-02T20:19:46.025Z,51.16
2023-02-02T20:22:28.350Z,51.45
2023-02-02T20:24:57.519Z,51.70
2023-02-02T20:27:28.277Z,51.71
2023-02-02T20:30:14.717Z,51.72
2023-02-02T20:32:43.174Z,53.03
2023-02-02T20:35:33.177Z,52.69
2023-02-02T20:38:02.028Z,52.39
2023-02-02T20:40:30.778Z,52.45
2023-02-02T20:42:59.521Z,53.26
2023-02-02T20:45:28.053Z,52.34
2023-02-02T20:47:56.589Z,53.53
2023-02-02T20:50:25.311Z,52.74
2023-02-02T20:52:55.701Z,52.66
2023-02-02T20:55:24.109Z,53.07
2023-02-02T20:57:52.958Z,53.29
2023-02-02T21:00:23.954Z,53.42
2023-02-02T21:02:52.782Z,52.64
2023-02-02T21:05:22.913Z,52.74
2023-02-02T21:07:54.650Z,53.06
2023-02-02T21:10:25.791Z,52.34
2023-02-02T21:12:54.510Z,52.09
2023-02-02T21:15:23.428Z,52.48
2023-02-02T21:17:52.405Z,51.88
2023-02-02T21:20:20.861Z,51.53
2023-02-02T21:22:49.424Z,51.84
2023-02-02T21:25:18.053Z,52.35
2023-02-02T21:27:46.506Z,53.42
2023-02-02T21:30:15.088Z,52.75
2023-02-02T21:32:44.118Z,52.68
2023-02-02T21:35:14.245Z,51.98
2023-02-02T21:37:44.231Z,51.91
2023-02-02T21:40:28.703Z,51.61
2023-02-02T21:42:59.755Z,51.93
2023-02-02T21:45:28.567Z,52.08
2023-02-02T21:48:05.265Z,51.50
2023-02-02T21:50:40.716Z,53.22
2023-02-02T21:53:27.079Z,52.49
2023-02-02T21:56:00.173Z,51.77
2023-02-02T21:58:42.072Z,51.70
2023-02-02T22:01:13.707Z,51.72
2023-02-02T22:03:46.513Z,51.96
2023-02-02T22:06:24.186Z,51.94
2023-02-02T22:09:01.148Z,51.65
2023-02-02T22:11:39.802Z,53.35
2023-02-02T22:14:34.397Z,52.54
2023-02-02T22:17:18.443Z,52.39
2023-02-02T22:19:46.828Z,52.39
2023-02-02T22:22:16.707Z,51.51
2023-02-02T22:24:48.135Z,51.98
2023-02-02T22:27:23.318Z,51.95
2023-02-02T22:30:10.747Z,52.61
2023-02-02T22:32:39.170Z,51.68
2023-02-02T22:35:07.979Z,51.48
2023-02-02T22:37:36.482Z,52.70
2023-02-02T22:40:05.118Z,52.05
2023-02-02T22:42:33.543Z,51.88
2023-02-02T22:45:02.377Z,52.99
2023-02-02T22:47:30.772Z,51.81
2023-02-02T22:49:59.328Z,51.85
2023-02-02T22:52:27.709Z,53.02
2023-02-02T22:54:56.138Z,51.69
2023-02-02T22:57:24.544Z,51.28
2023-02-02T22:59:52.953Z,51.60
2023-02-02T23:02:21.443Z,52.04
2023-02-02T23:04:49.913Z,51.19
2023-02-02T23:07:18.300Z,50.85
2023-02-02T23:09:46.679Z,51.07
2023-02-02T23:12:15.229Z,51.06
2023-02-02T23:14:43.637Z,51.25
2023-02-02T23:17:12.069Z,51.13
2023-02-02T23:19:40.573Z,50.89
2023-02-02T23:22:09.020Z,51.01
2023-02-02T23:24:37.562Z,50.70
2023-02-02T23:27:06.089Z,50.94
2023-02-02T23:29:34.507Z,51.59
2023-02-02T23:32:02.962Z,52.35
2023-02-02T23:34:31.508Z,52.01
2023-02-02T23:37:00.031Z,51.72
2023-02-02T23:39:28.468Z,51.18
2023-02-02T23:41:56.871Z,51.20
2023-02-02T23:44:25.386Z,50.83
2023-02-02T23:46:54.217Z,52.58
2023-02-02T23:49:22.961Z,52.06
2023-02-02T23:51:51.947Z,51.75
2023-02-02T23:54:20.537Z,51.71
2023-02-02T23:56:50.148Z,52.02
2023-02-02T23:59:18.616Z,51.79
